Iberica Hav — C6YI3 — position and weather

sailwx.info

Track history (hours):
 
Tides and Currents Weather Stations Pressure Air Temp Water Temp Dewpoint Dewpoint Depression Visibility Wind Speed Wind Dir Waves Ship Positions

Iberica Hav

Last reported at 2018-Jan-22 08:08 UTC. Time now 2018-Jan-22 18:39 UTC.
Position N 50°35' W 005°51'.

Length 88 m; draft 3.2 m.

Type: Cargo ship. MMSI: 311034400.

Date/timePositionNaut miles runAvg speedWind from/ knotsBaromVisibWave heightAir tempDewpointWater temp
2018-Jan-22 08:08N 50°35' W 005°51'15 8.3
2018-Jan-22 06:19N 50°20' W 005°52'6 9.0
2018-Jan-22 05:41N 50°14' W 005°52'3 9.3
2018-Jan-22 05:24N 50°12' W 005°52'4 9.3
2018-Jan-22 05:00N 50°08' W 005°52'5 9.1
2018-Jan-22 04:26N 50°03' W 005°52'43 6.9
2018-Jan-21 22:18N 49°59' W 004°46'10 5.8
2018-Jan-21 20:29N 50°01' W 004°30'3 5.2
2018-Jan-21 20:00N 50°01' W 004°26'3 5.0
2018-Jan-21 19:29N 50°02' W 004°22'2 4.8
2018-Jan-21 18:59N 50°02' W 004°18'16 5.5
2018-Jan-21 16:08N 50°05' W 003°55'1 6.7
2018-Jan-21 15:57N 50°05' W 003°53'7 6.8
2018-Jan-21 14:54N 50°06' W 003°42'3 6.8
2018-Jan-21 14:30N 50°07' W 003°37'13 6.4
2018-Jan-21 12:30N 50°09' W 003°18'3 5.5
2018-Jan-21 12:01N 50°10' W 003°14'3 5.5
2018-Jan-21 11:31N 50°10' W 003°09'3 5.4
2018-Jan-21 11:01N 50°11' W 003°05'3 5.4
2018-Jan-21 10:30N 50°11' W 003°01'3 5.4
2018-Jan-21 10:00N 50°12' W 002°57'3 5.6
2018-Jan-21 09:31N 50°12' W 002°53'3 6.1
2018-Jan-21 09:01N 50°13' W 002°48'96 8.2
2018-Jan-20 21:19N 50°30' W 000°19'2 6.8
2018-Jan-20 20:58N 50°30' W 000°16'4 7.6
2018-Jan-20 20:31N 50°31' W 000°10'4 8.4
2018-Jan-20 20:00N 50°32' W 000°04'5 9.1
2018-Jan-20 19:30N 50°33' E 000°03'5 9.7
2018-Jan-20 19:00N 50°34' E 000°10'510.0
2018-Jan-20 18:31N 50°36' E 000°18'510.1
2018-Jan-20 18:00N 50°37' E 000°26'510.0
2018-Jan-20 17:30N 50°39' E 000°33'5 9.7
2018-Jan-20 17:00N 50°41' E 000°40'5 9.3
2018-Jan-20 16:30N 50°44' E 000°46'4 8.8
2018-Jan-20 16:00N 50°46' E 000°52'4 8.3
2018-Jan-20 15:30N 50°49' E 000°57'13 7.2
2018-Jan-20 13:42N 50°57' E 001°13'1 6.4
2018-Jan-20 13:29N 50°58' E 001°15'3 6.2
2018-Jan-20 13:00N 50°60' E 001°18'3 6.2
2018-Jan-20 12:30N 51°02' E 001°22'4 7.2
2018-Jan-20 12:00N 51°04' E 001°27'4 8.9
2018-Jan-20 11:30N 51°07' E 001°32'510.2
2018-Jan-20 11:00N 51°10' E 001°38'611.1
2018-Jan-20 10:31N 51°14' E 001°45'611.7
2018-Jan-20 10:00N 51°18' E 001°51'611.6
2018-Jan-20 09:30N 51°22' E 001°57'4 8.0
2018-Jan-20 09:01N 51°24' E 002°03'5 9.5
2018-Jan-20 08:31N 51°22' E 002°10'5 9.7
2018-Jan-20 08:00N 51°21' E 002°18'5 9.8
2018-Jan-20 07:29N 51°22' E 002°26'5 9.4
2018-Jan-20 07:00N 51°23' E 002°33'5 9.1
2018-Jan-20 06:30N 51°23' E 002°41'4 8.4
2018-Jan-20 05:59N 51°22' E 002°47'5 9.2
2018-Jan-20 05:29N 51°22' E 002°55'5 9.0
2018-Jan-20 04:57N 51°22' E 003°02'4 8.7
2018-Jan-20 04:30N 51°23' E 003°09'4 8.3
2018-Jan-20 04:00N 51°23' E 003°15'4 8.3
2018-Jan-20 03:30N 51°24' E 003°22'4 8.0
2018-Jan-20 03:00N 51°25' E 003°28'4 6.8
2018-Jan-20 02:29N 51°25' E 003°34'3 5.9
2018-Jan-20 02:00N 51°26' E 003°38'3 6.3
2018-Jan-20 01:30N 51°25' E 003°43'4 7.6
2018-Jan-20 01:00N 51°23' E 003°48'3 6.8
2018-Jan-20 00:31N 51°22' E 003°53'4 8.3
2018-Jan-20 00:00N 51°26' E 003°56'4 7.3
2018-Jan-19 23:29N 51°26' E 004°02'4 8.0
2018-Jan-19 23:01N 51°23' E 004°06'4 8.3
2018-Jan-19 22:30N 51°24' E 004°12'510.4
2018-Jan-19 22:01N 51°20' E 004°16'4 7.4
2018-Jan-19 21:30N 51°17' E 004°20'0 0.0
2018-Jan-19 21:00N 51°17' E 004°20'0 0.5
2018-Jan-19 20:30N 51°17' E 004°20'0 0.6
2018-Jan-19 19:58N 51°17' E 004°21'0 0.0
2018-Jan-19 19:25N 51°17' E 004°21'0 0.0
2018-Jan-19 18:58N 51°17' E 004°21'0 0.0
2018-Jan-19 18:28N 51°17' E 004°21'0 0.0
2018-Jan-19 17:55N 51°17' E 004°21'0 0.0
2018-Jan-19 17:25N 51°17' E 004°21'0 0.0
2018-Jan-19 16:58N 51°17' E 004°21'0 0.0
2018-Jan-19 16:19N 51°17' E 004°21'0 0.0
2018-Jan-19 15:58N 51°17' E 004°21'0 0.0
2018-Jan-19 15:28N 51°17' E 004°21'0 0.0
2018-Jan-19 14:55N 51°17' E 004°21'0 0.0
2018-Jan-19 14:25N 51°17' E 004°21'0 0.0
2018-Jan-19 13:58N 51°17' E 004°21'0 0.0
2018-Jan-19 13:28N 51°17' E 004°21'0 0.0
2018-Jan-19 12:58N 51°17' E 004°21'0 0.0
2018-Jan-19 12:25N 51°17' E 004°21'0 0.0
2018-Jan-19 11:58N 51°17' E 004°21'0 0.0
2018-Jan-19 11:19N 51°17' E 004°21'0 0.0
2018-Jan-19 10:58N 51°17' E 004°21'0 0.0
2018-Jan-19 10:28N 51°17' E 004°21'0 0.0
2018-Jan-19 09:58N 51°17' E 004°21'0 0.0
2018-Jan-19 09:25N 51°17' E 004°21'0 0.0
2018-Jan-19 08:55N 51°17' E 004°21'0 0.0
2018-Jan-19 08:28N 51°17' E 004°21'0 0.0
2018-Jan-19 07:58N 51°17' E 004°21'0 0.0
2018-Jan-19 07:28N 51°17' E 004°21'0 0.0
2018-Jan-19 06:55N 51°17' E 004°21'0 0.0
2018-Jan-19 06:28N 51°17' E 004°21'0 0.0
2018-Jan-19 05:58N 51°17' E 004°21'0 0.0
2018-Jan-19 05:28N 51°17' E 004°21'0 0.0
2018-Jan-19 04:58N 51°17' E 004°21'0 0.3
2018-Jan-19 04:30N 51°17' E 004°21'3 5.1
2018-Jan-19 03:58N 51°19' E 004°19'2 3.7
2018-Jan-19 03:31N 51°21' E 004°17'0 0.0
2018-Jan-19 03:00N 51°21' E 004°17'0 0.6
2018-Jan-19 02:30N 51°21' E 004°17'4 7.1
2018-Jan-19 02:00N 51°23' E 004°13'510.4
2018-Jan-19 01:30N 51°22' E 004°05'510.1
2018-Jan-19 01:00N 51°26' E 003°59'612.1
2018-Jan-19 00:30N 51°21' E 003°53'611.2
2018-Jan-19 00:00N 51°22' E 003°44'611.2
2018-Jan-18 23:30N 51°25' E 003°37'5 9.3
2018-Jan-18 22:59N 51°28' E 003°31'611.4
2018-Jan-18 22:27N 51°33' E 003°25'1010.2
2018-Jan-18 21:29N 51°41' E 003°16'75 6.1
2018-Jan-18 09:03N 52°34' E 001°48'111.7
2018-Jan-18 09:00N 52°34' E 001°47'611.9
2018-Jan-18 08:30N 52°40' E 001°46'611.5
2018-Jan-18 07:59N 52°46' E 001°43'611.8
2018-Jan-18 07:30N 52°50' E 001°37'510.9
2018-Jan-18 07:00N 52°54' E 001°30'510.2
2018-Jan-18 06:30N 52°57' E 001°23'5 9.8
2018-Jan-18 06:00N 52°59' E 001°16'  
2018-Jan-12 14:48N 51°54' E 004°19'0 0.0
2018-Jan-12 14:30N 51°54' E 004°19'0 0.0
2018-Jan-12 14:00N 51°54' E 004°19'0 0.0
2018-Jan-12 13:30N 51°54' E 004°19'0 0.0
2018-Jan-12 13:00N 51°54' E 004°19'0 0.0
2018-Jan-12 12:30N 51°54' E 004°19'0 0.0
2018-Jan-12 12:00N 51°54' E 004°19'0 0.0
2018-Jan-12 11:30N 51°54' E 004°19'0 0.0
2018-Jan-12 11:00N 51°54' E 004°19'0 0.0
2018-Jan-12 10:30N 51°54' E 004°19'0 0.0
2018-Jan-12 10:00N 51°54' E 004°19'0 0.0
2018-Jan-12 09:30N 51°54' E 004°19'0 0.0
2018-Jan-12 09:00N 51°54' E 004°19'0 0.0
2018-Jan-12 08:30N 51°54' E 004°19'  
Track history (hours):
 
Tides and Currents Weather Stations Pressure Air Temp Water Temp Dewpoint Dewpoint Depression Visibility Wind Speed Wind Dir Waves Ship Positions

Iberica Hav

Last reported at 2018-Jan-22 08:08 UTC. Time now 2018-Jan-22 18:39 UTC.
Position N 50°35' W 005°51'.

Length 88 m; draft 3.2 m.

Type: Cargo ship. MMSI: 311034400.

Date/timePositionNaut miles runAvg speedWind from/ knotsBaromVisibWave heightAir tempDewpointWater temp
2018-Jan-22 08:08N 50°35' W 005°51'15 8.3
2018-Jan-22 06:19N 50°20' W 005°52'6 9.0
2018-Jan-22 05:41N 50°14' W 005°52'3 9.3
2018-Jan-22 05:24N 50°12' W 005°52'4 9.3
2018-Jan-22 05:00N 50°08' W 005°52'5 9.1
2018-Jan-22 04:26N 50°03' W 005°52'43 6.9
2018-Jan-21 22:18N 49°59' W 004°46'10 5.8
2018-Jan-21 20:29N 50°01' W 004°30'3 5.2
2018-Jan-21 20:00N 50°01' W 004°26'3 5.0
2018-Jan-21 19:29N 50°02' W 004°22'2 4.8
2018-Jan-21 18:59N 50°02' W 004°18'16 5.5
2018-Jan-21 16:08N 50°05' W 003°55'1 6.7
2018-Jan-21 15:57N 50°05' W 003°53'7 6.8
2018-Jan-21 14:54N 50°06' W 003°42'3 6.8
2018-Jan-21 14:30N 50°07' W 003°37'13 6.4
2018-Jan-21 12:30N 50°09' W 003°18'3 5.5
2018-Jan-21 12:01N 50°10' W 003°14'3 5.5
2018-Jan-21 11:31N 50°10' W 003°09'3 5.4
2018-Jan-21 11:01N 50°11' W 003°05'3 5.4
2018-Jan-21 10:30N 50°11' W 003°01'3 5.4
2018-Jan-21 10:00N 50°12' W 002°57'3 5.6
2018-Jan-21 09:31N 50°12' W 002°53'3 6.1
2018-Jan-21 09:01N 50°13' W 002°48'96 8.2
2018-Jan-20 21:19N 50°30' W 000°19'2 6.8
2018-Jan-20 20:58N 50°30' W 000°16'4 7.6
2018-Jan-20 20:31N 50°31' W 000°10'4 8.4
2018-Jan-20 20:00N 50°32' W 000°04'5 9.1
2018-Jan-20 19:30N 50°33' E 000°03'5 9.7
2018-Jan-20 19:00N 50°34' E 000°10'510.0
2018-Jan-20 18:31N 50°36' E 000°18'510.1
2018-Jan-20 18:00N 50°37' E 000°26'510.0
2018-Jan-20 17:30N 50°39' E 000°33'5 9.7
2018-Jan-20 17:00N 50°41' E 000°40'5 9.3
2018-Jan-20 16:30N 50°44' E 000°46'4 8.8
2018-Jan-20 16:00N 50°46' E 000°52'4 8.3
2018-Jan-20 15:30N 50°49' E 000°57'13 7.2
2018-Jan-20 13:42N 50°57' E 001°13'1 6.4
2018-Jan-20 13:29N 50°58' E 001°15'3 6.2
2018-Jan-20 13:00N 50°60' E 001°18'3 6.2
2018-Jan-20 12:30N 51°02' E 001°22'4 7.2
2018-Jan-20 12:00N 51°04' E 001°27'4 8.9
2018-Jan-20 11:30N 51°07' E 001°32'510.2
2018-Jan-20 11:00N 51°10' E 001°38'611.1
2018-Jan-20 10:31N 51°14' E 001°45'611.7
2018-Jan-20 10:00N 51°18' E 001°51'611.6
2018-Jan-20 09:30N 51°22' E 001°57'4 8.0
2018-Jan-20 09:01N 51°24' E 002°03'5 9.5
2018-Jan-20 08:31N 51°22' E 002°10'5 9.7
2018-Jan-20 08:00N 51°21' E 002°18'5 9.8
2018-Jan-20 07:29N 51°22' E 002°26'5 9.4
2018-Jan-20 07:00N 51°23' E 002°33'5 9.1
2018-Jan-20 06:30N 51°23' E 002°41'4 8.4
2018-Jan-20 05:59N 51°22' E 002°47'5 9.2
2018-Jan-20 05:29N 51°22' E 002°55'5 9.0
2018-Jan-20 04:57N 51°22' E 003°02'4 8.7
2018-Jan-20 04:30N 51°23' E 003°09'4 8.3
2018-Jan-20 04:00N 51°23' E 003°15'4 8.3
2018-Jan-20 03:30N 51°24' E 003°22'4 8.0
2018-Jan-20 03:00N 51°25' E 003°28'4 6.8
2018-Jan-20 02:29N 51°25' E 003°34'3 5.9
2018-Jan-20 02:00N 51°26' E 003°38'3 6.3
2018-Jan-20 01:30N 51°25' E 003°43'4 7.6
2018-Jan-20 01:00N 51°23' E 003°48'3 6.8
2018-Jan-20 00:31N 51°22' E 003°53'4 8.3
2018-Jan-20 00:00N 51°26' E 003°56'4 7.3
2018-Jan-19 23:29N 51°26' E 004°02'4 8.0
2018-Jan-19 23:01N 51°23' E 004°06'4 8.3
2018-Jan-19 22:30N 51°24' E 004°12'510.4
2018-Jan-19 22:01N 51°20' E 004°16'4 7.4
2018-Jan-19 21:30N 51°17' E 004°20'0 0.0
2018-Jan-19 21:00N 51°17' E 004°20'0 0.5
2018-Jan-19 20:30N 51°17' E 004°20'0 0.6
2018-Jan-19 19:58N 51°17' E 004°21'0 0.0
2018-Jan-19 19:25N 51°17' E 004°21'0 0.0
2018-Jan-19 18:58N 51°17' E 004°21'0 0.0
2018-Jan-19 18:28N 51°17' E 004°21'0 0.0
2018-Jan-19 17:55N 51°17' E 004°21'0 0.0
2018-Jan-19 17:25N 51°17' E 004°21'0 0.0
2018-Jan-19 16:58N 51°17' E 004°21'0 0.0
2018-Jan-19 16:19N 51°17' E 004°21'0 0.0
2018-Jan-19 15:58N 51°17' E 004°21'0 0.0
2018-Jan-19 15:28N 51°17' E 004°21'0 0.0
2018-Jan-19 14:55N 51°17' E 004°21'0 0.0
2018-Jan-19 14:25N 51°17' E 004°21'0 0.0
2018-Jan-19 13:58N 51°17' E 004°21'0 0.0
2018-Jan-19 13:28N 51°17' E 004°21'0 0.0
2018-Jan-19 12:58N 51°17' E 004°21'0 0.0
2018-Jan-19 12:25N 51°17' E 004°21'0 0.0
2018-Jan-19 11:58N 51°17' E 004°21'0 0.0
2018-Jan-19 11:19N 51°17' E 004°21'0 0.0
2018-Jan-19 10:58N 51°17' E 004°21'0 0.0
2018-Jan-19 10:28N 51°17' E 004°21'0 0.0
2018-Jan-19 09:58N 51°17' E 004°21'0 0.0
2018-Jan-19 09:25N 51°17' E 004°21'0 0.0
2018-Jan-19 08:55N 51°17' E 004°21'0 0.0
2018-Jan-19 08:28N 51°17' E 004°21'0 0.0
2018-Jan-19 07:58N 51°17' E 004°21'0 0.0
2018-Jan-19 07:28N 51°17' E 004°21'0 0.0
2018-Jan-19 06:55N 51°17' E 004°21'0 0.0
2018-Jan-19 06:28N 51°17' E 004°21'0 0.0
2018-Jan-19 05:58N 51°17' E 004°21'0 0.0
2018-Jan-19 05:28N 51°17' E 004°21'0 0.0
2018-Jan-19 04:58N 51°17' E 004°21'0 0.3
2018-Jan-19 04:30N 51°17' E 004°21'3 5.1
2018-Jan-19 03:58N 51°19' E 004°19'2 3.7
2018-Jan-19 03:31N 51°21' E 004°17'0 0.0
2018-Jan-19 03:00N 51°21' E 004°17'0 0.6
2018-Jan-19 02:30N 51°21' E 004°17'4 7.1
2018-Jan-19 02:00N 51°23' E 004°13'510.4
2018-Jan-19 01:30N 51°22' E 004°05'510.1
2018-Jan-19 01:00N 51°26' E 003°59'612.1
2018-Jan-19 00:30N 51°21' E 003°53'611.2
2018-Jan-19 00:00N 51°22' E 003°44'611.2
2018-Jan-18 23:30N 51°25' E 003°37'5 9.3
2018-Jan-18 22:59N 51°28' E 003°31'611.4
2018-Jan-18 22:27N 51°33' E 003°25'1010.2
2018-Jan-18 21:29N 51°41' E 003°16'75 6.1
2018-Jan-18 09:03N 52°34' E 001°48'111.7
2018-Jan-18 09:00N 52°34' E 001°47'611.9
2018-Jan-18 08:30N 52°40' E 001°46'611.5
2018-Jan-18 07:59N 52°46' E 001°43'611.8
2018-Jan-18 07:30N 52°50' E 001°37'510.9
2018-Jan-18 07:00N 52°54' E 001°30'510.2
2018-Jan-18 06:30N 52°57' E 001°23'5 9.8
2018-Jan-18 06:00N 52°59' E 001°16'  
2018-Jan-12 14:48N 51°54' E 004°19'0 0.0
2018-Jan-12 14:30N 51°54' E 004°19'0 0.0
2018-Jan-12 14:00N 51°54' E 004°19'0 0.0
2018-Jan-12 13:30N 51°54' E 004°19'0 0.0
2018-Jan-12 13:00N 51°54' E 004°19'0 0.0
2018-Jan-12 12:30N 51°54' E 004°19'0 0.0
2018-Jan-12 12:00N 51°54' E 004°19'0 0.0
2018-Jan-12 11:30N 51°54' E 004°19'0 0.0
2018-Jan-12 11:00N 51°54' E 004°19'0 0.0
2018-Jan-12 10:30N 51°54' E 004°19'0 0.0
2018-Jan-12 10:00N 51°54' E 004°19'0 0.0
2018-Jan-12 09:30N 51°54' E 004°19'0 0.0
2018-Jan-12 09:00N 51°54' E 004°19'0 0.0
2018-Jan-12 08:30N 51°54' E 004°19'  

Dump ship's entire track history